Time;durP1;ratioP1;P1;durP2;ratioP2;P2;SDS_P1;SDS_P2;PMS_P1;PMS_P2;Temp;Humidity;BMP_temperature;BMP_pressure;BME280_temperature;BME280_humidity;BME280_pressure;Samples;Min_cycle;Max_cycle;Signal;HPM_P1;HPM_P2
2023/09/29 00:00:56;;;;;;;8.25;1.00;;;16.80;99.90;;;;;;5004326;28;20041;-69
2023/09/29 00:03:21;;;;;;;6.15;0.95;;;16.80;99.90;;;;;;5007911;28;20031;-69
2023/09/29 00:05:49;;;;;;;11.07;1.70;;;16.80;99.90;;;;;;5004221;28;20046;-71
2023/09/29 00:08:22;;;;;;;10.82;1.27;;;16.80;99.90;;;;;;5006248;28;20054;-70
2023/09/29 00:10:50;;;;;;;6.78;1.45;;;16.80;99.90;;;;;;5003967;28;20045;-70
2023/09/29 00:13:16;;;;;;;10.38;1.73;;;16.90;99.90;;;;;;5005886;28;20026;-71
2023/09/29 00:15:42;;;;;;;16.55;2.20;;;16.90;99.90;;;;;;5003173;28;20044;-69
2023/09/29 00:18:08;;;;;;;10.48;1.98;;;16.90;99.90;;;;;;5001615;28;20066;-70
2023/09/29 00:20:36;;;;;;;8.05;1.83;;;16.90;99.90;;;;;;5003939;28;20085;-69
2023/09/29 00:23:02;;;;;;;7.75;2.10;;;16.90;99.90;;;;;;5005627;28;20387;-71
2023/09/29 00:25:28;;;;;;;5.15;1.30;;;16.90;99.90;;;;;;5002479;28;20155;-71
2023/09/29 00:27:56;;;;;;;8.25;2.00;;;17.00;99.90;;;;;;5002624;28;20088;-70
2023/09/29 00:30:21;;;;;;;12.90;1.20;;;17.00;99.90;;;;;;5003213;28;20108;-70
2023/09/29 00:32:49;;;;;;;11.48;1.95;;;17.00;99.90;;;;;;5005748;28;20041;-68
2023/09/29 00:35:27;;;;;;;8.27;2.58;;;17.00;99.90;;;;;;5002359;28;20038;-68
2023/09/29 00:38:00;;;;;;;8.00;1.63;;;17.00;99.90;;;;;;4996716;28;20058;-69
2023/09/29 00:40:27;;;;;;;12.30;1.95;;;17.10;99.90;;;;;;5003199;28;20064;-70
2023/09/29 00:42:53;;;;;;;9.18;1.77;;;17.10;99.90;;;;;;5000454;28;20061;-69
2023/09/29 00:45:25;;;;;;;9.63;2.60;;;17.10;99.90;;;;;;4997119;28;20030;-71
2023/09/29 00:47:57;;;;;;;10.73;1.77;;;17.10;99.90;;;;;;5003916;28;20042;-72
2023/09/29 00:50:23;;;;;;;7.22;1.60;;;17.20;99.90;;;;;;4996897;28;20030;-70
2023/09/29 00:52:54;;;;;;;8.98;1.40;;;17.10;99.90;;;;;;4999826;28;20026;-69
2023/09/29 00:55:26;;;;;;;6.50;1.30;;;17.20;99.90;;;;;;5001256;28;20500;-70
2023/09/29 00:57:52;;;;;;;14.98;2.08;;;17.20;99.90;;;;;;5006329;28;20029;-70
2023/09/29 01:00:36;;;;;;;9.18;1.30;;;17.10;99.90;;;;;;5008572;28;20036;-70
2023/09/29 01:03:15;;;;;;;10.20;1.55;;;17.20;99.90;;;;;;4998749;28;20104;-70
2023/09/29 01:05:46;;;;;;;7.60;1.05;;;17.20;99.90;;;;;;5001314;28;20037;-71
2023/09/29 01:08:16;;;;;;;8.48;1.55;;;17.20;99.90;;;;;;5008789;28;20029;-71
2023/09/29 01:10:42;;;;;;;9.95;1.50;;;17.20;99.90;;;;;;5011320;28;20371;-71
2023/09/29 01:13:09;;;;;;;7.68;1.35;;;17.20;99.90;;;;;;4996986;28;20036;-72
2023/09/29 01:15:36;;;;;;;9.18;1.50;;;17.20;99.90;;;;;;5011897;28;20054;-71
2023/09/29 01:18:02;;;;;;;12.63;1.25;;;17.20;99.90;;;;;;4998845;28;20115;-71
2023/09/29 01:20:31;;;;;;;6.57;1.52;;;17.20;99.90;;;;;;5003172;28;20026;-70
2023/09/29 01:23:08;;;;;;;17.48;1.98;;;17.30;99.90;;;;;;4997471;28;20049;-71
2023/09/29 01:25:34;;;;;;;5.43;1.30;;;17.30;99.90;;;;;;4997032;28;20485;-70
2023/09/29 01:28:01;;;;;;;6.70;1.20;;;17.30;99.90;;;;;;5001924;28;20030;-70
2023/09/29 01:30:27;;;;;;;11.23;1.27;;;17.30;99.90;;;;;;5002278;28;20031;-72
2023/09/29 01:32:56;;;;;;;13.27;1.95;;;17.30;99.90;;;;;;4999186;28;20172;-70
2023/09/29 01:35:23;;;;;;;10.00;1.50;;;17.30;99.90;;;;;;4995166;28;20100;-71
2023/09/29 01:37:50;;;;;;;10.05;1.95;;;17.30;99.90;;;;;;4999067;28;20367;-70
2023/09/29 01:40:17;;;;;;;10.57;2.08;;;17.30;99.90;;;;;;5003873;28;20043;-69
2023/09/29 01:42:44;;;;;;;8.35;2.35;;;17.30;99.90;;;;;;5005441;28;20693;-71
2023/09/29 01:45:19;;;;;;;6.40;1.50;;;17.20;99.90;;;;;;5006888;28;20072;-71
2023/09/29 01:47:46;;;;;;;9.32;1.75;;;17.30;99.90;;;;;;5008891;28;20045;-70
2023/09/29 01:50:15;;;;;;;6.90;1.83;;;17.20;99.90;;;;;;5007330;28;20040;-72
2023/09/29 01:52:41;;;;;;;10.25;1.50;;;17.20;99.90;;;;;;5006206;28;20444;-70
2023/09/29 01:55:12;;;;;;;12.80;2.40;;;17.20;99.90;;;;;;5007496;28;20081;-70
2023/09/29 01:57:38;;;;;;;11.98;1.50;;;17.20;99.90;;;;;;5003855;28;20038;-70
2023/09/29 02:00:05;;;;;;;12.43;1.52;;;17.20;99.90;;;;;;5004010;28;20088;-70
2023/09/29 02:02:31;;;;;;;6.18;1.73;;;17.20;99.90;;;;;;5012276;28;20022;-72
2023/09/29 02:04:56;;;;;;;9.75;1.83;;;17.10;99.90;;;;;;5006749;28;20079;-70
2023/09/29 02:07:24;;;;;;;7.82;1.50;;;17.20;99.90;;;;;;5009657;28;20061;-70
2023/09/29 02:09:50;;;;;;;9.32;1.80;;;17.20;99.90;;;;;;5009404;28;20080;-71
2023/09/29 02:12:17;;;;;;;9.13;1.95;;;17.20;99.90;;;;;;5011954;28;20494;-71
2023/09/29 02:14:42;;;;;;;7.50;1.52;;;17.20;99.90;;;;;;5006970;28;20034;-70
2023/09/29 02:17:09;;;;;;;8.30;1.23;;;17.20;99.90;;;;;;5008944;28;20038;-71
2023/09/29 02:19:35;;;;;;;6.38;1.58;;;17.20;99.90;;;;;;5009349;28;20053;-71
2023/09/29 02:22:08;;;;;;;7.03;2.00;;;17.20;99.90;;;;;;5009573;28;20057;-70
2023/09/29 02:24:34;;;;;;;7.85;1.80;;;17.20;99.90;;;;;;5007130;28;20804;-72
2023/09/29 02:27:00;;;;;;;7.93;2.08;;;17.30;99.90;;;;;;5009316;28;20041;-72
2023/09/29 02:29:27;;;;;;;10.70;1.95;;;17.30;99.90;;;;;;5007725;28;20042;-74
2023/09/29 02:31:55;;;;;;;6.68;1.52;;;17.20;99.90;;;;;;5009255;28;20053;-68
2023/09/29 02:34:22;;;;;;;8.20;2.13;;;17.20;99.90;;;;;;5007273;28;20564;-71
2023/09/29 02:36:47;;;;;;;7.70;1.60;;;17.20;99.90;;;;;;5011471;28;20033;-71
2023/09/29 02:39:13;;;;;;;5.70;1.27;;;17.20;99.90;;;;;;5008357;28;20126;-69
2023/09/29 02:41:38;;;;;;;7.63;1.67;;;17.20;99.90;;;;;;5006420;28;20080;-70
2023/09/29 02:44:04;;;;;;;9.00;1.50;;;17.20;99.90;;;;;;5007704;28;20060;-71
2023/09/29 02:46:30;;;;;;;13.40;2.55;;;17.20;99.90;;;;;;5005111;28;20041;-70
2023/09/29 02:48:55;;;;;;;6.68;1.23;;;17.30;99.90;;;;;;5009465;28;20076;-70
2023/09/29 02:51:21;;;;;;;6.72;1.42;;;17.30;99.90;;;;;;5006719;28;20046;-70
2023/09/29 02:53:48;;;;;;;9.55;1.65;;;17.30;99.90;;;;;;5012106;28;20038;-71
2023/09/29 02:56:16;;;;;;;7.15;1.83;;;17.30;99.90;;;;;;5007317;28;20117;-70
2023/09/29 02:58:46;;;;;;;7.05;1.63;;;17.30;99.90;;;;;;5004753;28;20030;-70
2023/09/29 03:01:16;;;;;;;7.20;1.00;;;17.30;99.90;;;;;;5008588;28;20033;-71
2023/09/29 03:03:44;;;;;;;5.63;1.10;;;17.30;99.90;;;;;;5004602;28;20265;-70
2023/09/29 03:06:23;;;;;;;19.38;1.60;;;17.30;99.90;;;;;;5002555;28;20072;-69
2023/09/29 03:08:56;;;;;;;11.50;1.50;;;17.40;99.90;;;;;;5007701;28;20130;-70
2023/09/29 03:11:22;;;;;;;7.30;1.63;;;17.40;99.90;;;;;;5007683;28;20517;-70
2023/09/29 03:13:48;;;;;;;5.03;1.92;;;17.40;99.90;;;;;;5006908;28;20432;-71
2023/09/29 03:16:13;;;;;;;6.28;1.27;;;17.40;99.90;;;;;;5007824;28;20033;-70
2023/09/29 03:18:39;;;;;;;10.05;2.08;;;17.40;99.90;;;;;;5007199;28;20046;-69
2023/09/29 03:21:07;;;;;;;4.70;1.20;;;17.30;99.90;;;;;;5004758;28;20068;-71
2023/09/29 03:23:36;;;;;;;7.15;2.25;;;17.20;99.90;;;;;;5010316;28;20080;-71
2023/09/29 03:26:03;;;;;;;10.15;1.75;;;17.00;99.90;;;;;;5005489;28;20037;-70
2023/09/29 03:28:30;;;;;;;7.75;1.40;;;16.80;99.90;;;;;;5002768;28;20320;-70
2023/09/29 03:30:56;;;;;;;5.38;1.73;;;16.60;99.90;;;;;;5020447;28;20062;-70
2023/09/29 03:33:21;;;;;;;5.80;1.38;;;16.50;99.90;;;;;;5003573;28;20083;-70
2023/09/29 03:35:47;;;;;;;13.30;1.85;;;16.40;99.90;;;;;;5006023;28;20057;-71
2023/09/29 03:38:14;;;;;;;12.07;1.95;;;16.30;99.90;;;;;;5007000;28;20096;-72
2023/09/29 03:40:44;;;;;;;12.23;2.65;;;16.20;99.90;;;;;;5003469;28;20034;-71
2023/09/29 03:43:11;;;;;;;11.27;2.92;;;16.20;99.90;;;;;;5001284;28;20046;-72
2023/09/29 03:45:38;;;;;;;8.98;2.05;;;16.20;99.90;;;;;;5003422;28;20038;-71
2023/09/29 03:48:04;;;;;;;10.27;1.73;;;16.20;99.90;;;;;;5002529;28;20037;-71
2023/09/29 03:50:30;;;;;;;9.32;1.50;;;16.10;99.90;;;;;;5003236;28;20038;-72
2023/09/29 03:52:55;;;;;;;6.05;1.70;;;16.20;99.90;;;;;;5005634;28;20117;-70
2023/09/29 03:55:21;;;;;;;10.43;1.88;;;16.20;99.90;;;;;;5017559;28;20038;-69
2023/09/29 03:57:48;;;;;;;7.50;1.90;;;16.20;99.90;;;;;;5002195;28;20200;-71
2023/09/29 04:00:17;;;;;;;8.43;1.30;;;16.20;99.90;;;;;;5003615;28;20033;-70
2023/09/29 04:02:42;;;;;;;9.27;1.95;;;16.20;99.90;;;;;;5006738;28;20124;-71
2023/09/29 04:05:09;;;;;;;6.32;1.48;;;16.30;99.90;;;;;;5001917;28;20113;-72
2023/09/29 04:07:36;;;;;;;11.02;2.75;;;16.30;99.90;;;;;;5001363;28;20033;-70
2023/09/29 04:10:02;;;;;;;8.05;2.20;;;16.30;99.90;;;;;;5005160;28;20113;-70
2023/09/29 04:12:28;;;;;;;6.63;1.52;;;16.40;99.90;;;;;;5002303;28;20033;-72
2023/09/29 04:14:54;;;;;;;8.40;1.55;;;16.40;99.90;;;;;;5003657;28;20026;-69
2023/09/29 04:17:20;;;;;;;5.90;1.48;;;16.40;99.90;;;;;;5004146;28;20133;-76
2023/09/29 04:19:46;;;;;;;6.55;2.13;;;16.40;99.90;;;;;;5000459;28;20042;-69
2023/09/29 04:22:11;;;;;;;7.68;2.00;;;16.40;99.90;;;;;;5008641;28;20022;-72
2023/09/29 04:24:38;;;;;;;7.55;2.28;;;16.40;99.90;;;;;;4996308;28;20038;-70
2023/09/29 04:27:03;;;;;;;5.43;1.30;;;16.50;99.90;;;;;;5000775;28;20469;-70
2023/09/29 04:29:29;;;;;;;7.75;1.42;;;16.50;99.90;;;;;;5014917;28;20030;-69
2023/09/29 04:31:55;;;;;;;8.25;1.58;;;16.50;99.90;;;;;;5008569;28;20038;-71
2023/09/29 04:34:20;;;;;;;8.23;1.30;;;16.50;99.90;;;;;;4999991;28;20062;-71
2023/09/29 04:36:46;;;;;;;6.80;1.83;;;16.60;99.90;;;;;;5003493;28;20053;-71
2023/09/29 04:39:11;;;;;;;8.80;1.42;;;16.60;99.90;;;;;;5007314;28;20042;-70
2023/09/29 04:41:38;;;;;;;10.43;1.50;;;16.60;99.90;;;;;;5000636;28;20034;-70
2023/09/29 04:44:05;;;;;;;9.43;1.27;;;16.70;99.90;;;;;;5008744;28;20570;-70
2023/09/29 04:46:31;;;;;;;11.30;1.85;;;16.70;99.90;;;;;;4997334;28;20046;-70
2023/09/29 04:48:58;;;;;;;5.55;1.58;;;16.70;99.90;;;;;;5001040;28;20038;-72
2023/09/29 04:51:24;;;;;;;9.73;1.73;;;16.60;99.90;;;;;;5008643;28;20030;-70
2023/09/29 04:53:49;;;;;;;4.68;1.55;;;16.70;99.90;;;;;;5004312;28;20133;-70
2023/09/29 04:56:15;;;;;;;9.23;1.33;;;16.70;99.90;;;;;;5005385;28;20038;-72
2023/09/29 04:58:41;;;;;;;9.32;1.50;;;16.70;99.90;;;;;;4999149;28;20057;-70
2023/09/29 05:01:06;;;;;;;6.15;1.65;;;16.70;99.90;;;;;;5007771;28;20049;-69
2023/09/29 05:03:32;;;;;;;11.35;1.98;;;16.70;99.90;;;;;;5006033;28;20042;-70
2023/09/29 05:05:58;;;;;;;5.65;1.00;;;16.70;99.90;;;;;;5003381;28;20120;-72
2023/09/29 05:08:23;;;;;;;6.55;1.65;;;16.70;99.90;;;;;;5007131;28;20509;-69
2023/09/29 05:10:49;;;;;;;4.35;1.15;;;16.70;99.90;;;;;;5003061;28;20394;-71
2023/09/29 05:13:15;;;;;;;3.83;1.58;;;16.70;99.90;;;;;;5006327;28;20033;-69
2023/09/29 05:15:41;;;;;;;5.93;1.98;;;16.70;99.90;;;;;;4999702;28;20498;-70
2023/09/29 05:18:06;;;;;;;3.88;1.23;;;16.70;99.90;;;;;;5003643;28;20067;-71
2023/09/29 05:20:32;;;;;;;9.73;1.52;;;16.70;99.90;;;;;;4997135;28;20044;-70
2023/09/29 05:22:58;;;;;;;4.35;1.00;;;16.70;99.90;;;;;;5003363;28;20048;-72
2023/09/29 05:25:23;;;;;;;5.28;1.50;;;16.70;99.90;;;;;;5002402;28;20405;-72
2023/09/29 05:27:49;;;;;;;5.70;1.35;;;16.70;99.90;;;;;;5002650;28;20038;-70
2023/09/29 05:30:16;;;;;;;4.18;1.30;;;16.70;99.90;;;;;;5011087;28;20025;-70
2023/09/29 05:32:42;;;;;;;4.13;0.98;;;16.70;99.90;;;;;;5008921;28;20120;-70
2023/09/29 05:35:08;;;;;;;3.13;1.08;;;16.70;99.90;;;;;;5006749;28;20490;-70
2023/09/29 05:37:33;;;;;;;4.88;1.00;;;16.70;99.90;;;;;;5008871;28;20030;-70
2023/09/29 05:40:03;;;;;;;3.72;1.08;;;16.70;99.90;;;;;;5012265;28;20033;-71
2023/09/29 05:42:30;;;;;;;5.63;1.10;;;16.80;99.90;;;;;;5014170;28;20030;-70
2023/09/29 05:44:55;;;;;;;5.97;1.50;;;16.80;99.90;;;;;;5009624;28;20033;-72
2023/09/29 05:47:21;;;;;;;4.85;0.70;;;16.80;99.90;;;;;;5009429;28;20048;-72
2023/09/29 05:49:47;;;;;;;5.75;1.30;;;16.80;99.90;;;;;;5007930;28;20037;-70
2023/09/29 05:52:12;;;;;;;4.20;0.90;;;16.90;99.90;;;;;;5013319;28;20034;-72
2023/09/29 05:54:38;;;;;;;6.55;1.48;;;16.90;99.90;;;;;;5015770;28;20034;-72
2023/09/29 05:57:04;;;;;;;4.75;1.25;;;16.90;99.90;;;;;;5008627;28;20026;-70
2023/09/29 05:59:29;;;;;;;5.88;1.13;;;16.90;99.90;;;;;;5009682;28;20433;-72
2023/09/29 06:01:56;;;;;;;4.68;1.13;;;17.00;99.90;;;;;;5008314;28;20044;-72
2023/09/29 06:04:22;;;;;;;3.05;1.33;;;17.00;99.90;;;;;;5008557;28;20117;-70
2023/09/29 06:06:47;;;;;;;4.60;1.60;;;17.00;99.90;;;;;;5012476;28;20124;-70
2023/09/29 06:09:13;;;;;;;2.60;1.15;;;17.00;99.90;;;;;;5008460;28;20038;-71
2023/09/29 06:11:39;;;;;;;8.98;1.80;;;17.00;99.90;;;;;;5007684;28;20079;-69
2023/09/29 06:14:06;;;;;;;3.28;0.82;;;17.00;99.90;;;;;;5010377;28;20565;-70
2023/09/29 06:16:32;;;;;;;3.20;1.10;;;17.10;99.90;;;;;;5007337;28;20041;-70
2023/09/29 06:18:57;;;;;;;4.40;1.05;;;17.20;99.90;;;;;;5010628;28;20026;-71
2023/09/29 06:21:23;;;;;;;3.55;1.00;;;17.20;99.90;;;;;;5006701;28;20089;-71
2023/09/29 06:23:48;;;;;;;3.65;1.00;;;17.20;99.90;;;;;;5006858;28;20037;-70
2023/09/29 06:26:14;;;;;;;3.35;1.23;;;17.20;99.90;;;;;;5006791;28;20038;-70
2023/09/29 06:28:40;;;;;;;2.70;1.00;;;17.20;99.90;;;;;;5006957;28;20133;-72
2023/09/29 06:31:06;;;;;;;4.60;1.05;;;17.20;99.90;;;;;;5011960;28;20029;-72
2023/09/29 06:33:32;;;;;;;2.83;0.90;;;17.20;99.90;;;;;;5009250;28;20124;-74
2023/09/29 06:35:57;;;;;;;7.05;1.13;;;17.30;99.90;;;;;;5009904;28;20038;-70
2023/09/29 06:38:23;;;;;;;4.32;1.52;;;17.30;99.90;;;;;;5009101;28;20096;-72
2023/09/29 06:40:48;;;;;;;4.88;0.75;;;17.30;99.90;;;;;;5007412;28;20026;-70
2023/09/29 06:43:16;;;;;;;7.43;0.75;;;17.30;99.90;;;;;;5009167;28;20083;-70
2023/09/29 06:45:41;;;;;;;4.30;0.90;;;17.30;99.90;;;;;;5008899;28;20490;-71
2023/09/29 06:48:07;;;;;;;4.03;0.88;;;17.30;99.90;;;;;;5002935;28;20095;-70
2023/09/29 06:50:32;;;;;;;3.92;0.70;;;17.30;99.90;;;;;;5001732;28;20128;-70
2023/09/29 06:52:58;;;;;;;4.18;1.05;;;17.30;99.90;;;;;;4998938;28;20390;-71
2023/09/29 06:55:24;;;;;;;4.30;1.67;;;17.30;99.90;;;;;;5004116;28;20181;-71
2023/09/29 06:57:50;;;;;;;4.45;0.95;;;17.40;99.90;;;;;;5007262;28;20037;-71
2023/09/29 07:00:15;;;;;;;3.13;1.15;;;17.40;99.90;;;;;;5018981;28;20022;-71
2023/09/29 07:02:41;;;;;;;4.13;0.90;;;17.40;99.90;;;;;;5008925;28;20033;-71
2023/09/29 07:05:07;;;;;;;3.65;1.10;;;17.50;99.90;;;;;;5007095;28;20041;-69
2023/09/29 07:07:33;;;;;;;1.67;0.98;;;17.60;99.90;;;;;;5008972;28;20090;-71
2023/09/29 07:09:59;;;;;;;3.90;0.80;;;17.60;99.90;;;;;;5011746;28;20039;-72
2023/09/29 07:12:24;;;;;;;6.63;1.52;;;17.70;99.90;;;;;;5012999;28;20042;-69
2023/09/29 07:14:51;;;;;;;2.10;0.80;;;17.70;99.90;;;;;;5004755;28;20037;-71
2023/09/29 07:17:17;;;;;;;5.20;1.15;;;17.80;99.90;;;;;;5006054;28;20068;-71
2023/09/29 07:19:43;;;;;;;5.63;1.08;;;17.80;99.90;;;;;;5001582;28;20487;-70
2023/09/29 07:22:08;;;;;;;3.65;0.77;;;17.90;99.90;;;;;;5006940;28;20039;-70
2023/09/29 07:24:34;;;;;;;1.88;0.88;;;18.00;99.90;;;;;;5017076;28;20500;-72
2023/09/29 07:26:59;;;;;;;3.08;0.70;;;18.10;99.90;;;;;;5007072;28;20124;-72
2023/09/29 07:29:25;;;;;;;3.72;0.93;;;18.10;99.90;;;;;;5006427;28;20053;-70
2023/09/29 07:31:51;;;;;;;3.90;1.33;;;18.20;99.90;;;;;;5006710;28;20034;-71
2023/09/29 07:34:17;;;;;;;3.13;0.70;;;18.30;99.90;;;;;;5005469;28;20083;-70
2023/09/29 07:36:44;;;;;;;1.60;0.50;;;18.30;99.90;;;;;;5001833;28;20105;-71
2023/09/29 07:39:14;;;;;;;4.72;1.15;;;18.30;99.90;;;;;;5007424;28;20116;-71
2023/09/29 07:41:40;;;;;;;2.37;0.97;;;18.30;99.90;;;;;;5009454;28;20038;-71
2023/09/29 07:44:07;;;;;;;4.45;1.33;;;18.40;99.90;;;;;;5004676;28;20036;-71
2023/09/29 07:46:33;;;;;;;4.68;0.77;;;18.40;99.90;;;;;;5008021;28;20483;-71
2023/09/29 07:48:58;;;;;;;2.35;0.80;;;18.40;99.90;;;;;;5010906;28;20029;-71
2023/09/29 07:51:25;;;;;;;6.00;0.70;;;18.50;99.90;;;;;;5005224;28;20122;-71
2023/09/29 07:53:51;;;;;;;6.05;1.50;;;18.50;99.90;;;;;;5006940;28;20504;-71
2023/09/29 07:56:16;;;;;;;6.68;1.08;;;18.50;99.90;;;;;;5006001;28;20145;-71
2023/09/29 07:58:42;;;;;;;3.67;0.95;;;18.50;99.90;;;;;;5003499;28;20044;-72
2023/09/29 08:01:07;;;;;;;3.70;1.20;;;18.60;99.90;;;;;;5004298;28;20511;-71
2023/09/29 08:03:33;;;;;;;3.97;0.90;;;18.60;99.90;;;;;;5007405;28;20140;-71
2023/09/29 08:05:59;;;;;;;3.17;1.17;;;18.60;99.90;;;;;;5012992;28;20107;-72
2023/09/29 08:08:24;;;;;;;3.45;0.90;;;18.60;99.90;;;;;;5008315;28;20038;-71
2023/09/29 08:10:51;;;;;;;2.90;1.08;;;18.60;99.90;;;;;;5007577;28;20052;-71
2023/09/29 08:13:17;;;;;;;3.50;0.93;;;18.60;99.90;;;;;;5006216;28;20041;-71
2023/09/29 08:15:43;;;;;;;4.85;1.30;;;18.60;99.90;;;;;;5006283;28;20553;-71
2023/09/29 08:18:08;;;;;;;4.53;1.58;;;18.70;99.90;;;;;;5005869;28;20068;-70
2023/09/29 08:20:34;;;;;;;1.70;0.98;;;18.70;99.90;;;;;;5005868;28;20465;-71
2023/09/29 08:23:00;;;;;;;5.20;1.33;;;18.70;99.90;;;;;;5008878;28;20025;-70
2023/09/29 08:25:26;;;;;;;1.90;0.90;;;18.70;99.90;;;;;;5007815;28;20506;-70
2023/09/29 08:27:51;;;;;;;3.33;1.00;;;18.80;99.90;;;;;;5009935;28;20525;-70
2023/09/29 08:30:17;;;;;;;3.75;1.10;;;18.80;99.90;;;;;;5005707;28;20118;-70
2023/09/29 08:32:43;;;;;;;3.85;1.00;;;18.80;99.90;;;;;;5007941;28;20026;-71
2023/09/29 08:35:13;;;;;;;2.80;1.30;;;19.00;99.90;;;;;;5007910;28;20113;-71
2023/09/29 08:37:40;;;;;;;3.35;1.10;;;19.10;99.90;;;;;;5006684;28;20421;-72
2023/09/29 08:40:12;;;;;;;2.03;0.85;;;19.20;99.90;;;;;;5005468;28;20394;-71
2023/09/29 08:42:38;;;;;;;2.97;1.00;;;19.20;99.90;;;;;;5002580;28;20034;-72
2023/09/29 08:45:13;;;;;;;6.25;1.33;;;19.30;99.90;;;;;;5010843;28;20624;-72
2023/09/29 08:47:40;;;;;;;6.18;1.02;;;19.40;99.90;;;;;;5004398;28;20542;-72
2023/09/29 08:50:07;;;;;;;4.35;1.45;;;19.60;99.90;;;;;;5010180;28;21414;-72
2023/09/29 08:52:33;;;;;;;4.65;1.42;;;19.60;99.90;;;;;;5008328;28;20026;-71
2023/09/29 08:55:06;;;;;;;6.35;0.98;;;19.70;99.90;;;;;;5005745;28;20505;-72
2023/09/29 08:57:33;;;;;;;3.22;1.05;;;19.80;99.90;;;;;;5005857;28;20118;-71
2023/09/29 09:00:00;;;;;;;2.20;0.93;;;19.80;99.90;;;;;;5009472;28;20037;-69
2023/09/29 09:02:26;;;;;;;3.17;0.90;;;19.80;99.90;;;;;;5011778;28;20041;-72
2023/09/29 09:04:52;;;;;;;3.25;0.98;;;19.90;99.90;;;;;;5008928;28;20096;-70
2023/09/29 09:07:19;;;;;;;3.70;0.90;;;19.90;99.90;;;;;;5010646;28;20145;-70
2023/09/29 09:09:53;;;;;;;4.50;1.02;;;20.00;99.90;;;;;;5001868;28;20064;-70
2023/09/29 09:12:34;;;;;;;2.67;0.93;;;20.10;99.90;;;;;;5006136;28;20034;-69
2023/09/29 09:15:00;;;;;;;2.20;0.93;;;20.10;99.90;;;;;;5006807;28;20049;-69
2023/09/29 09:17:26;;;;;;;3.05;0.82;;;20.20;99.90;;;;;;5008527;28;20099;-69
2023/09/29 09:19:51;;;;;;;7.40;0.80;;;20.30;99.90;;;;;;5003206;28;20029;-69
2023/09/29 09:22:22;;;;;;;6.72;1.02;;;20.40;99.90;;;;;;5005987;28;20036;-69
2023/09/29 09:24:48;;;;;;;1.85;0.50;;;20.50;99.90;;;;;;5007481;28;20116;-71
2023/09/29 09:27:14;;;;;;;1.67;0.73;;;20.60;99.90;;;;;;5009711;28;20133;-71
2023/09/29 09:29:43;;;;;;;5.20;0.85;;;20.70;99.90;;;;;;5006573;28;20065;-70
2023/09/29 09:32:10;;;;;;;7.72;1.20;;;20.70;99.90;;;;;;5006281;28;20038;-70
2023/09/29 09:34:37;;;;;;;2.00;0.80;;;20.70;99.90;;;;;;5005270;28;20099;-70
2023/09/29 09:37:05;;;;;;;3.78;0.70;;;20.70;99.90;;;;;;5002206;28;20037;-72
2023/09/29 09:39:33;;;;;;;2.08;0.63;;;20.70;99.90;;;;;;5002105;28;20417;-70
2023/09/29 09:41:59;;;;;;;0.80;0.40;;;20.70;99.90;;;;;;5005308;28;20040;-70
2023/09/29 09:44:28;;;;;;;2.17;0.70;;;20.70;99.90;;;;;;5008270;28;20136;-70
2023/09/29 09:47:00;;;;;;;1.92;0.70;;;20.60;99.90;;;;;;5002962;28;20147;-70
2023/09/29 09:49:38;;;;;;;3.22;0.68;;;20.50;99.90;;;;;;5004184;28;20034;-70
2023/09/29 09:52:08;;;;;;;2.75;0.60;;;20.50;99.90;;;;;;5007261;28;20037;-71
2023/09/29 09:54:43;;;;;;;1.27;0.63;;;20.40;99.90;;;;;;5005960;28;20117;-70
2023/09/29 09:57:11;;;;;;;3.15;0.85;;;20.40;99.90;;;;;;5005168;28;20034;-70
2023/09/29 09:59:37;;;;;;;1.25;0.57;;;20.30;99.90;;;;;;5002884;28;20493;-69
2023/09/29 10:02:06;;;;;;;3.05;0.82;;;20.20;99.90;;;;;;5003605;28;20034;-70
2023/09/29 10:04:35;;;;;;;2.93;0.73;;;20.20;99.90;;;;;;5002575;28;20172;-70
2023/09/29 10:07:01;;;;;;;3.85;0.90;;;20.20;99.90;;;;;;5001243;28;20346;-70
2023/09/29 10:09:26;;;;;;;1.58;0.50;;;20.20;99.90;;;;;;5003005;28;20062;-70
2023/09/29 10:11:59;;;;;;;2.33;0.90;;;20.20;99.90;;;;;;5002217;28;20065;-70
2023/09/29 10:14:24;;;;;;;3.00;0.80;;;20.10;99.90;;;;;;5006946;28;20034;-70
2023/09/29 10:17:03;;;;;;;2.20;0.80;;;20.20;99.90;;;;;;5008906;28;20159;-70
2023/09/29 10:19:39;;;;;;;1.67;0.50;;;20.20;99.90;;;;;;5006472;28;20037;-71
2023/09/29 10:22:06;;;;;;;4.80;1.23;;;20.20;99.90;;;;;;5009750;28;20040;-70
2023/09/29 10:24:32;;;;;;;3.20;0.88;;;20.20;99.90;;;;;;5006987;28;20804;-70
2023/09/29 10:27:11;;;;;;;3.22;0.90;;;20.20;99.90;;;;;;5009451;28;20053;-70
2023/09/29 10:29:38;;;;;;;2.58;1.00;;;20.20;99.90;;;;;;5005479;28;20078;-70
2023/09/29 10:32:13;;;;;;;3.45;1.02;;;20.20;99.90;;;;;;5012300;28;20748;-70
2023/09/29 10:34:40;;;;;;;2.42;0.80;;;20.20;99.90;;;;;;5004841;28;20137;-70
2023/09/29 10:37:06;;;;;;;3.00;1.13;;;20.10;99.90;;;;;;5009668;28;20084;-68
2023/09/29 10:39:32;;;;;;;5.85;1.35;;;20.10;99.90;;;;;;5007622;28;20505;-70
2023/09/29 10:42:25;;;;;;;4.88;1.02;;;20.00;99.90;;;;;;5008382;28;20064;-69
2023/09/29 10:44:52;;;;;;;3.33;1.02;;;20.00;99.90;;;;;;5006642;28;20045;-70
2023/09/29 10:47:33;;;;;;;2.15;1.00;;;20.00;99.90;;;;;;5005111;28;20025;-72
2023/09/29 10:50:10;;;;;;;4.20;0.90;;;19.90;99.90;;;;;;5004579;28;20042;-70
2023/09/29 10:52:35;;;;;;;2.83;1.15;;;19.90;99.90;;;;;;5004757;28;20048;-69
2023/09/29 10:55:04;;;;;;;4.80;1.27;;;19.80;99.90;;;;;;5007961;28;20045;-72
2023/09/29 10:57:30;;;;;;;6.72;1.48;;;19.70;99.90;;;;;;5008866;28;20386;-72
2023/09/29 11:00:02;;;;;;;6.38;1.83;;;19.50;99.90;;;;;;5013258;28;20061;-70
2023/09/29 11:02:37;;;;;;;7.07;1.92;;;19.50;99.90;;;;;;5005393;28;20034;-72
2023/09/29 11:05:06;;;;;;;4.03;1.30;;;19.30;99.90;;;;;;5005011;28;20072;-69
2023/09/29 11:07:50;;;;;;;4.93;0.95;;;19.30;99.90;;;;;;5011624;28;20052;-70
2023/09/29 11:10:20;;;;;;;2.05;0.70;;;19.30;99.90;;;;;;5005158;28;20041;-69
2023/09/29 11:12:49;;;;;;;4.32;0.40;;;19.20;99.90;;;;;;4998694;28;20490;-70
2023/09/29 11:15:16;;;;;;;1.95;0.73;;;19.10;99.90;;;;;;5003662;28;20037;-72
2023/09/29 11:17:44;;;;;;;3.20;0.60;;;19.00;99.90;;;;;;5003489;28;20526;-72
2023/09/29 11:20:16;;;;;;;2.80;0.50;;;18.90;99.90;;;;;;5005754;28;20037;-70
2023/09/29 11:22:45;;;;;;;4.90;0.70;;;18.70;99.90;;;;;;5006826;28;20038;-70
2023/09/29 11:25:20;;;;;;;0.80;0.30;;;18.70;99.90;;;;;;5010764;28;20038;-72
2023/09/29 11:27:50;;;;;;;2.45;0.40;;;18.60;99.90;;;;;;5004711;28;20049;-71
2023/09/29 11:30:16;;;;;;;3.25;0.43;;;18.50;99.90;;;;;;5002156;28;20100;-70
2023/09/29 11:32:41;;;;;;;2.58;0.40;;;18.40;99.90;;;;;;5005912;28;20486;-70
2023/09/29 11:35:13;;;;;;;3.35;0.50;;;18.40;99.90;;;;;;5004062;28;20050;-69
2023/09/29 11:37:39;;;;;;;4.53;0.50;;;18.40;99.90;;;;;;5000520;28;20933;-70
2023/09/29 11:40:11;;;;;;;3.90;0.60;;;18.40;99.90;;;;;;5002843;28;20029;-69
2023/09/29 11:42:38;;;;;;;1.15;0.38;;;18.40;99.90;;;;;;5001534;28;20095;-69
2023/09/29 11:45:10;;;;;;;3.90;0.60;;;18.40;99.90;;;;;;5002420;28;20026;-72
2023/09/29 11:47:40;;;;;;;3.00;0.47;;;18.40;99.90;;;;;;5003481;28;20041;-71
2023/09/29 11:50:08;;;;;;;2.50;0.32;;;18.40;99.90;;;;;;5006422;28;20060;-70
2023/09/29 11:52:34;;;;;;;6.82;1.13;;;18.40;99.90;;;;;;5004785;28;20037;-71
2023/09/29 11:55:00;;;;;;;5.72;0.60;;;18.40;99.90;;;;;;5006628;28;20037;-71
2023/09/29 11:57:25;;;;;;;2.40;0.50;;;18.40;99.90;;;;;;5004553;28;20026;-69
2023/09/29 11:59:51;;;;;;;3.00;0.50;;;18.50;99.90;;;;;;5006576;28;20037;-71
2023/09/29 12:02:16;;;;;;;3.17;0.32;;;18.50;99.90;;;;;;5005815;28;20030;-70
2023/09/29 12:04:42;;;;;;;2.55;0.45;;;18.40;99.90;;;;;;5002502;28;20046;-72
2023/09/29 12:07:08;;;;;;;2.75;0.47;;;18.40;99.90;;;;;;5006190;28;20033;-70
2023/09/29 12:09:33;;;;;;;9.48;1.48;;;18.40;99.90;;;;;;5003887;28;20069;-72
2023/09/29 12:12:00;;;;;;;1.27;0.32;;;18.40;99.90;;;;;;5005272;28;20034;-69
2023/09/29 12:14:26;;;;;;;2.58;0.57;;;18.40;99.90;;;;;;5007679;28;20787;-71
2023/09/29 12:16:53;;;;;;;1.55;0.28;;;18.40;99.90;;;;;;5004694;28;20124;-71
2023/09/29 12:19:20;;;;;;;3.42;0.60;;;18.40;99.90;;;;;;5005286;28;20034;-71
2023/09/29 12:21:47;;;;;;;3.67;0.28;;;18.30;99.90;;;;;;5004155;28;20033;-71
2023/09/29 12:24:14;;;;;;;2.72;0.50;;;18.30;99.90;;;;;;5003682;28;20026;-70
2023/09/29 12:26:46;;;;;;;5.82;0.98;;;18.20;99.90;;;;;;5005295;28;20042;-70
2023/09/29 12:29:12;;;;;;;4.38;0.70;;;18.20;99.90;;;;;;5004132;28;20037;-70
2023/09/29 12:31:38;;;;;;;2.72;0.30;;;18.40;99.90;;;;;;5004615;28;20037;-69
2023/09/29 12:34:04;;;;;;;3.42;0.50;;;18.50;99.90;;;;;;5007524;28;20050;-69
2023/09/29 12:36:30;;;;;;;7.55;0.63;;;18.60;99.90;;;;;;5007307;28;20125;-69
2023/09/29 12:38:55;;;;;;;4.93;0.85;;;18.70;99.90;;;;;;5003056;28;20524;-71
2023/09/29 12:41:22;;;;;;;5.90;2.03;;;18.80;99.90;;;;;;5007311;28;20034;-71
2023/09/29 12:43:47;;;;;;;3.22;0.40;;;18.70;99.90;;;;;;5002071;28;20060;-70
2023/09/29 12:46:13;;;;;;;5.57;1.00;;;18.70;99.90;;;;;;5005245;28;20498;-71